aviador You're here:

LFMV Decoded Metar

AVIGNON in FRANCE
Report Time2017-09-22 15:00:00
UTC Time2017-09-22 15:23:49
Flight Rules vfr VFR
Wind250° at 07 kt
W.Decomp.*RWY 17: 1.3 kt HW 6.9 kt RCW
W.Rank250° ranks 23
Current wind is above 250° avg. (5.8)
Visibility9999 m
Phenomena:N/A
Clouds:N/A
Expected CloudBase > 5,200 ft AGL from Temp-Dew spread
CeilingNone
Temp25°C (ISA +10)
Dew Point12°C (44% RH)
AAT23.1°C
QNH1019 hPa
Density Alt1,299 ft
Elevation125 ft
Report Wrong Elevation
Raw Report
LFMV 221500Z AUTO 25007KT CAVOK 25/12 Q1019 NOSIG=

Extra information for LFMV:More info

Metar Taf Metar & Taf Last 4 Metars F.Rules Stats Wind Profile Meteogram Temp Stats Airport Information Weather charts Add Link Nearby VenuesMetar ALERT Operation Metar Decoded Social comments